sensor_id;sensor_type;location;lat;lon;timestamp;temperature;humidity
20833;DHT22;56075;51.264;7.150;2023-05-07T00:00:39;15.50;99.90
20833;DHT22;56075;51.264;7.150;2023-05-07T00:03:11;16.90;99.90
20833;DHT22;56075;51.264;7.150;2023-05-07T00:05:42;15.50;99.90
20833;DHT22;56075;51.264;7.150;2023-05-07T00:08:13;15.80;99.90
20833;DHT22;56075;51.264;7.150;2023-05-07T00:10:44;15.40;99.90
20833;DHT22;56075;51.264;7.150;2023-05-07T00:13:15;15.60;99.90
20833;DHT22;56075;51.264;7.150;2023-05-07T00:15:46;15.60;99.90
20833;DHT22;56075;51.264;7.150;2023-05-07T00:18:18;15.50;99.90
20833;DHT22;56075;51.264;7.150;2023-05-07T00:20:51;15.50;99.90
20833;DHT22;56075;51.264;7.150;2023-05-07T00:23:23;15.90;99.90
20833;DHT22;56075;51.264;7.150;2023-05-07T00:25:54;16.10;99.90
20833;DHT22;56075;51.264;7.150;2023-05-07T00:28:25;15.90;99.90
20833;DHT22;56075;51.264;7.150;2023-05-07T00:30:56;15.60;99.90
20833;DHT22;56075;51.264;7.150;2023-05-07T00:33:27;15.60;99.90
20833;DHT22;56075;51.264;7.150;2023-05-07T00:35:59;15.50;99.90
20833;DHT22;56075;51.264;7.150;2023-05-07T00:38:32;15.50;99.90
20833;DHT22;56075;51.264;7.150;2023-05-07T00:41:03;15.50;99.90
20833;DHT22;56075;51.264;7.150;2023-05-07T00:43:34;15.40;99.90
20833;DHT22;56075;51.264;7.150;2023-05-07T00:46:05;17.10;99.90
20833;DHT22;56075;51.264;7.150;2023-05-07T00:48:36;15.40;99.90
20833;DHT22;56075;51.264;7.150;2023-05-07T00:51:08;16.70;99.90
20833;DHT22;56075;51.264;7.150;2023-05-07T00:53:40;15.40;99.90
20833;DHT22;56075;51.264;7.150;2023-05-07T00:56:11;15.30;99.90
20833;DHT22;56075;51.264;7.150;2023-05-07T00:58:42;15.80;99.90
20833;DHT22;56075;51.264;7.150;2023-05-07T01:01:14;16.80;99.90
20833;DHT22;56075;51.264;7.150;2023-05-07T01:03:47;15.50;99.90
20833;DHT22;56075;51.264;7.150;2023-05-07T01:06:19;16.80;99.90
20833;DHT22;56075;51.264;7.150;2023-05-07T01:08:52;16.00;99.90
20833;DHT22;56075;51.264;7.150;2023-05-07T01:11:24;16.50;99.90
20833;DHT22;56075;51.264;7.150;2023-05-07T01:13:58;16.10;99.90
20833;DHT22;56075;51.264;7.150;2023-05-07T01:16:30;15.50;99.90
20833;DHT22;56075;51.264;7.150;2023-05-07T01:19:02;15.20;99.90
20833;DHT22;56075;51.264;7.150;2023-05-07T01:21:33;15.10;99.90
20833;DHT22;56075;51.264;7.150;2023-05-07T01:24:09;15.30;99.90
20833;DHT22;56075;51.264;7.150;2023-05-07T01:26:41;15.90;99.90
20833;DHT22;56075;51.264;7.150;2023-05-07T01:29:13;16.40;99.90
20833;DHT22;56075;51.264;7.150;2023-05-07T01:31:44;16.40;99.90
20833;DHT22;56075;51.264;7.150;2023-05-07T01:34:17;15.40;99.90
20833;DHT22;56075;51.264;7.150;2023-05-07T01:36:49;15.80;99.90
20833;DHT22;56075;51.264;7.150;2023-05-07T01:39:24;16.40;99.90
20833;DHT22;56075;51.264;7.150;2023-05-07T01:41:56;15.10;99.90
20833;DHT22;56075;51.264;7.150;2023-05-07T01:44:28;15.70;99.90
20833;DHT22;56075;51.264;7.150;2023-05-07T01:47:02;16.50;99.90
20833;DHT22;56075;51.264;7.150;2023-05-07T01:49:33;15.20;99.90
20833;DHT22;56075;51.264;7.150;2023-05-07T01:52:05;15.10;99.90
20833;DHT22;56075;51.264;7.150;2023-05-07T01:54:37;15.20;99.90
20833;DHT22;56075;51.264;7.150;2023-05-07T01:57:08;15.00;99.90
20833;DHT22;56075;51.264;7.150;2023-05-07T01:59:39;16.40;99.90
20833;DHT22;56075;51.264;7.150;2023-05-07T02:02:10;15.00;99.90
20833;DHT22;56075;51.264;7.150;2023-05-07T02:04:44;14.90;99.90
20833;DHT22;56075;51.264;7.150;2023-05-07T02:07:17;15.00;99.90
20833;DHT22;56075;51.264;7.150;2023-05-07T02:09:48;14.90;99.90
20833;DHT22;56075;51.264;7.150;2023-05-07T02:12:19;15.10;99.90
20833;DHT22;56075;51.264;7.150;2023-05-07T02:14:50;15.00;99.90
20833;DHT22;56075;51.264;7.150;2023-05-07T02:17:22;15.80;99.90
20833;DHT22;56075;51.264;7.150;2023-05-07T02:19:53;14.80;99.90
20833;DHT22;56075;51.264;7.150;2023-05-07T02:22:24;14.80;99.90
20833;DHT22;56075;51.264;7.150;2023-05-07T02:24:56;16.40;99.90
20833;DHT22;56075;51.264;7.150;2023-05-07T02:27:27;16.40;99.90
20833;DHT22;56075;51.264;7.150;2023-05-07T02:29:58;14.70;99.90
20833;DHT22;56075;51.264;7.150;2023-05-07T02:32:29;15.40;99.90
20833;DHT22;56075;51.264;7.150;2023-05-07T02:35:01;14.70;99.90
20833;DHT22;56075;51.264;7.150;2023-05-07T02:37:32;14.70;99.90
20833;DHT22;56075;51.264;7.150;2023-05-07T02:40:03;16.00;99.90
20833;DHT22;56075;51.264;7.150;2023-05-07T02:42:35;14.60;99.90
20833;DHT22;56075;51.264;7.150;2023-05-07T02:45:07;14.60;99.90
20833;DHT22;56075;51.264;7.150;2023-05-07T02:47:40;14.50;99.90
20833;DHT22;56075;51.264;7.150;2023-05-07T02:50:11;14.90;99.90
20833;DHT22;56075;51.264;7.150;2023-05-07T02:52:43;14.60;99.90
20833;DHT22;56075;51.264;7.150;2023-05-07T02:55:14;15.00;99.90
20833;DHT22;56075;51.264;7.150;2023-05-07T02:57:45;14.50;99.90
20833;DHT22;56075;51.264;7.150;2023-05-07T03:00:18;14.50;99.90
20833;DHT22;56075;51.264;7.150;2023-05-07T03:03:14;14.50;99.90
20833;DHT22;56075;51.264;7.150;2023-05-07T03:05:45;15.50;99.90
20833;DHT22;56075;51.264;7.150;2023-05-07T03:08:16;15.00;99.90
20833;DHT22;56075;51.264;7.150;2023-05-07T03:10:48;14.40;99.90
20833;DHT22;56075;51.264;7.150;2023-05-07T03:13:19;16.10;99.90
20833;DHT22;56075;51.264;7.150;2023-05-07T03:15:51;14.40;99.90
20833;DHT22;56075;51.264;7.150;2023-05-07T03:18:22;14.10;99.90
20833;DHT22;56075;51.264;7.150;2023-05-07T03:20:53;14.40;99.90
20833;DHT22;56075;51.264;7.150;2023-05-07T03:23:24;15.00;99.90
20833;DHT22;56075;51.264;7.150;2023-05-07T03:25:55;14.50;99.90
20833;DHT22;56075;51.264;7.150;2023-05-07T03:28:26;14.30;99.90
20833;DHT22;56075;51.264;7.150;2023-05-07T03:31:03;15.40;99.90
20833;DHT22;56075;51.264;7.150;2023-05-07T03:33:37;14.20;99.90
20833;DHT22;56075;51.264;7.150;2023-05-07T03:36:10;14.60;99.90
20833;DHT22;56075;51.264;7.150;2023-05-07T03:38:41;14.80;99.90
20833;DHT22;56075;51.264;7.150;2023-05-07T03:41:13;14.40;99.90
20833;DHT22;56075;51.264;7.150;2023-05-07T03:43:44;14.40;99.90
20833;DHT22;56075;51.264;7.150;2023-05-07T03:46:16;14.30;99.90
20833;DHT22;56075;51.264;7.150;2023-05-07T03:48:48;14.10;99.90
20833;DHT22;56075;51.264;7.150;2023-05-07T03:51:21;15.30;99.90
20833;DHT22;56075;51.264;7.150;2023-05-07T03:53:52;15.10;99.90
20833;DHT22;56075;51.264;7.150;2023-05-07T03:56:24;14.40;99.90
20833;DHT22;56075;51.264;7.150;2023-05-07T03:59:01;15.40;99.90
20833;DHT22;56075;51.264;7.150;2023-05-07T04:01:32;14.80;99.90
20833;DHT22;56075;51.264;7.150;2023-05-07T04:04:04;14.90;99.90
20833;DHT22;56075;51.264;7.150;2023-05-07T04:06:37;14.60;99.90
20833;DHT22;56075;51.264;7.150;2023-05-07T04:09:08;14.10;99.90
20833;DHT22;56075;51.264;7.150;2023-05-07T04:11:41;14.10;99.90
20833;DHT22;56075;51.264;7.150;2023-05-07T04:14:15;15.80;99.90
20833;DHT22;56075;51.264;7.150;2023-05-07T04:16:46;13.90;99.90
20833;DHT22;56075;51.264;7.150;2023-05-07T04:19:17;13.90;99.90
20833;DHT22;56075;51.264;7.150;2023-05-07T04:21:51;14.20;99.90
20833;DHT22;56075;51.264;7.150;2023-05-07T04:24:22;13.90;99.90
20833;DHT22;56075;51.264;7.150;2023-05-07T04:26:53;13.80;99.90
20833;DHT22;56075;51.264;7.150;2023-05-07T04:29:26;14.00;99.90
20833;DHT22;56075;51.264;7.150;2023-05-07T04:31:58;13.90;99.90
20833;DHT22;56075;51.264;7.150;2023-05-07T04:34:30;15.00;99.90
20833;DHT22;56075;51.264;7.150;2023-05-07T04:37:05;13.90;99.90
20833;DHT22;56075;51.264;7.150;2023-05-07T04:39:36;14.00;99.90
20833;DHT22;56075;51.264;7.150;2023-05-07T04:42:07;13.90;99.90
20833;DHT22;56075;51.264;7.150;2023-05-07T04:44:40;15.30;99.90
20833;DHT22;56075;51.264;7.150;2023-05-07T04:47:12;14.10;99.90
20833;DHT22;56075;51.264;7.150;2023-05-07T04:49:44;14.00;99.90
20833;DHT22;56075;51.264;7.150;2023-05-07T04:52:16;14.20;99.90
20833;DHT22;56075;51.264;7.150;2023-05-07T04:54:47;14.10;99.90
20833;DHT22;56075;51.264;7.150;2023-05-07T04:57:19;16.00;99.90
20833;DHT22;56075;51.264;7.150;2023-05-07T04:59:50;14.20;99.90
20833;DHT22;56075;51.264;7.150;2023-05-07T05:02:22;15.20;99.90
20833;DHT22;56075;51.264;7.150;2023-05-07T05:04:53;14.60;99.90
20833;DHT22;56075;51.264;7.150;2023-05-07T05:07:24;15.90;99.90
20833;DHT22;56075;51.264;7.150;2023-05-07T05:09:56;14.70;99.90
20833;DHT22;56075;51.264;7.150;2023-05-07T05:12:29;15.40;99.90
20833;DHT22;56075;51.264;7.150;2023-05-07T05:15:03;14.80;99.90
20833;DHT22;56075;51.264;7.150;2023-05-07T05:17:34;14.80;99.90
20833;DHT22;56075;51.264;7.150;2023-05-07T05:20:08;15.00;99.90
20833;DHT22;56075;51.264;7.150;2023-05-07T05:22:42;15.00;99.90
20833;DHT22;56075;51.264;7.150;2023-05-07T05:25:14;15.10;99.90
20833;DHT22;56075;51.264;7.150;2023-05-07T05:27:46;15.10;99.90
20833;DHT22;56075;51.264;7.150;2023-05-07T05:30:18;15.20;99.90
20833;DHT22;56075;51.264;7.150;2023-05-07T05:32:51;15.30;99.90
20833;DHT22;56075;51.264;7.150;2023-05-07T05:35:22;15.80;99.90
20833;DHT22;56075;51.264;7.150;2023-05-07T05:37:54;15.20;99.90
20833;DHT22;56075;51.264;7.150;2023-05-07T05:40:25;15.30;99.90
20833;DHT22;56075;51.264;7.150;2023-05-07T05:42:56;15.50;99.90
20833;DHT22;56075;51.264;7.150;2023-05-07T05:45:28;16.40;99.90
20833;DHT22;56075;51.264;7.150;2023-05-07T05:48:00;15.60;99.90
20833;DHT22;56075;51.264;7.150;2023-05-07T05:50:31;15.60;99.90
20833;DHT22;56075;51.264;7.150;2023-05-07T05:53:04;16.50;99.90
20833;DHT22;56075;51.264;7.150;2023-05-07T05:55:35;16.00;99.90
20833;DHT22;56075;51.264;7.150;2023-05-07T05:58:06;16.20;99.90
20833;DHT22;56075;51.264;7.150;2023-05-07T06:00:41;16.60;99.90
20833;DHT22;56075;51.264;7.150;2023-05-07T06:03:12;16.70;99.90
20833;DHT22;56075;51.264;7.150;2023-05-07T06:05:44;16.40;99.90
20833;DHT22;56075;51.264;7.150;2023-05-07T06:08:15;16.40;99.90
20833;DHT22;56075;51.264;7.150;2023-05-07T06:10:46;16.80;99.90
20833;DHT22;56075;51.264;7.150;2023-05-07T06:13:18;16.70;99.90
20833;DHT22;56075;51.264;7.150;2023-05-07T06:15:49;16.80;99.90
20833;DHT22;56075;51.264;7.150;2023-05-07T06:18:20;17.20;99.90
20833;DHT22;56075;51.264;7.150;2023-05-07T06:20:52;17.10;99.90
20833;DHT22;56075;51.264;7.150;2023-05-07T06:23:29;17.20;99.90
20833;DHT22;56075;51.264;7.150;2023-05-07T06:26:01;17.20;99.90
20833;DHT22;56075;51.264;7.150;2023-05-07T06:28:38;18.00;99.90
20833;DHT22;56075;51.264;7.150;2023-05-07T06:31:18;17.40;99.90
20833;DHT22;56075;51.264;7.150;2023-05-07T06:34:04;18.00;99.90
20833;DHT22;56075;51.264;7.150;2023-05-07T06:36:42;17.70;99.90
20833;DHT22;56075;51.264;7.150;2023-05-07T06:39:40;17.60;99.90
20833;DHT22;56075;51.264;7.150;2023-05-07T06:42:12;17.50;99.90
20833;DHT22;56075;51.264;7.150;2023-05-07T06:44:46;18.10;99.90
20833;DHT22;56075;51.264;7.150;2023-05-07T06:47:20;17.60;99.90
20833;DHT22;56075;51.264;7.150;2023-05-07T06:49:56;17.80;99.90
20833;DHT22;56075;51.264;7.150;2023-05-07T06:52:31;17.70;99.90
20833;DHT22;56075;51.264;7.150;2023-05-07T06:55:03;18.00;99.90
20833;DHT22;56075;51.264;7.150;2023-05-07T06:57:34;18.00;99.90
20833;DHT22;56075;51.264;7.150;2023-05-07T07:00:06;18.20;99.90
20833;DHT22;56075;51.264;7.150;2023-05-07T07:02:46;18.30;99.90
20833;DHT22;56075;51.264;7.150;2023-05-07T07:05:20;19.30;99.90
20833;DHT22;56075;51.264;7.150;2023-05-07T07:07:51;18.50;99.90
20833;DHT22;56075;51.264;7.150;2023-05-07T07:10:26;18.60;99.90
20833;DHT22;56075;51.264;7.150;2023-05-07T07:12:59;18.60;99.90
20833;DHT22;56075;51.264;7.150;2023-05-07T07:15:30;18.80;99.90
20833;DHT22;56075;51.264;7.150;2023-05-07T07:18:02;18.70;99.90
20833;DHT22;56075;51.264;7.150;2023-05-07T07:20:34;18.70;99.90
20833;DHT22;56075;51.264;7.150;2023-05-07T07:23:05;18.90;99.90
20833;DHT22;56075;51.264;7.150;2023-05-07T07:25:36;18.90;99.90
20833;DHT22;56075;51.264;7.150;2023-05-07T07:28:08;18.90;99.90
20833;DHT22;56075;51.264;7.150;2023-05-07T07:30:41;19.00;99.90
20833;DHT22;56075;51.264;7.150;2023-05-07T07:33:13;19.20;99.90
20833;DHT22;56075;51.264;7.150;2023-05-07T07:35:46;20.10;99.90
20833;DHT22;56075;51.264;7.150;2023-05-07T07:38:17;18.90;99.90
20833;DHT22;56075;51.264;7.150;2023-05-07T07:40:48;19.10;99.90
20833;DHT22;56075;51.264;7.150;2023-05-07T07:43:19;19.30;99.90
20833;DHT22;56075;51.264;7.150;2023-05-07T07:45:51;19.30;99.90
20833;DHT22;56075;51.264;7.150;2023-05-07T07:48:22;19.60;99.90
20833;DHT22;56075;51.264;7.150;2023-05-07T07:50:54;19.60;99.90
20833;DHT22;56075;51.264;7.150;2023-05-07T07:53:25;19.60;99.90
20833;DHT22;56075;51.264;7.150;2023-05-07T07:55:57;19.80;99.90
20833;DHT22;56075;51.264;7.150;2023-05-07T07:58:31;19.90;99.90
20833;DHT22;56075;51.264;7.150;2023-05-07T08:01:03;19.50;99.90
20833;DHT22;56075;51.264;7.150;2023-05-07T08:03:35;19.90;99.90
20833;DHT22;56075;51.264;7.150;2023-05-07T08:06:07;19.80;99.90
20833;DHT22;56075;51.264;7.150;2023-05-07T08:08:40;20.70;99.90
20833;DHT22;56075;51.264;7.150;2023-05-07T08:11:11;20.00;99.90
20833;DHT22;56075;51.264;7.150;2023-05-07T08:13:42;20.10;99.90
20833;DHT22;56075;51.264;7.150;2023-05-07T08:16:14;20.30;99.90
20833;DHT22;56075;51.264;7.150;2023-05-07T08:18:47;21.00;99.90
20833;DHT22;56075;51.264;7.150;2023-05-07T08:21:18;20.20;99.90
20833;DHT22;56075;51.264;7.150;2023-05-07T08:23:49;20.50;99.90
20833;DHT22;56075;51.264;7.150;2023-05-07T08:26:20;20.80;99.90
20833;DHT22;56075;51.264;7.150;2023-05-07T08:28:52;20.80;99.90
20833;DHT22;56075;51.264;7.150;2023-05-07T08:31:23;21.00;99.90
20833;DHT22;56075;51.264;7.150;2023-05-07T08:33:54;21.10;99.90
20833;DHT22;56075;51.264;7.150;2023-05-07T08:36:27;21.40;99.90
20833;DHT22;56075;51.264;7.150;2023-05-07T08:39:00;21.40;99.90
20833;DHT22;56075;51.264;7.150;2023-05-07T08:41:33;21.40;99.90
20833;DHT22;56075;51.264;7.150;2023-05-07T08:44:12;21.40;99.90
20833;DHT22;56075;51.264;7.150;2023-05-07T08:46:46;20.70;99.90
20833;DHT22;56075;51.264;7.150;2023-05-07T08:49:21;21.30;99.90
20833;DHT22;56075;51.264;7.150;2023-05-07T08:51:53;21.30;99.90
20833;DHT22;56075;51.264;7.150;2023-05-07T08:54:25;21.40;99.90
20833;DHT22;56075;51.264;7.150;2023-05-07T08:56:57;21.50;99.90
20833;DHT22;56075;51.264;7.150;2023-05-07T08:59:29;21.90;99.90
20833;DHT22;56075;51.264;7.150;2023-05-07T09:02:01;21.70;99.90
20833;DHT22;56075;51.264;7.150;2023-05-07T09:04:32;22.40;99.90
20833;DHT22;56075;51.264;7.150;2023-05-07T09:07:04;21.80;99.90
20833;DHT22;56075;51.264;7.150;2023-05-07T09:09:38;21.90;99.90
20833;DHT22;56075;51.264;7.150;2023-05-07T09:12:10;22.20;99.90
20833;DHT22;56075;51.264;7.150;2023-05-07T09:14:41;22.20;99.90
20833;DHT22;56075;51.264;7.150;2023-05-07T09:17:13;22.20;99.90
20833;DHT22;56075;51.264;7.150;2023-05-07T09:19:46;22.40;99.90
20833;DHT22;56075;51.264;7.150;2023-05-07T09:22:19;22.30;99.90
20833;DHT22;56075;51.264;7.150;2023-05-07T09:25:04;22.40;99.90
20833;DHT22;56075;51.264;7.150;2023-05-07T09:27:35;22.30;99.90
20833;DHT22;56075;51.264;7.150;2023-05-07T09:30:08;22.40;99.90
20833;DHT22;56075;51.264;7.150;2023-05-07T09:32:40;22.40;99.90
20833;DHT22;56075;51.264;7.150;2023-05-07T09:35:18;22.60;99.90
20833;DHT22;56075;51.264;7.150;2023-05-07T09:37:55;22.50;99.90
20833;DHT22;56075;51.264;7.150;2023-05-07T09:40:29;22.70;99.90
20833;DHT22;56075;51.264;7.150;2023-05-07T09:43:10;22.80;99.90
20833;DHT22;56075;51.264;7.150;2023-05-07T09:45:46;22.90;99.90
20833;DHT22;56075;51.264;7.150;2023-05-07T09:48:24;23.10;99.90
20833;DHT22;56075;51.264;7.150;2023-05-07T09:51:02;23.10;99.90
20833;DHT22;56075;51.264;7.150;2023-05-07T09:53:36;23.20;99.90
20833;DHT22;56075;51.264;7.150;2023-05-07T09:56:09;23.40;99.90
20833;DHT22;56075;51.264;7.150;2023-05-07T09:58:43;23.30;99.60
20833;DHT22;56075;51.264;7.150;2023-05-07T10:01:17;23.60;99.40
20833;DHT22;56075;51.264;7.150;2023-05-07T10:03:50;23.60;99.00
20833;DHT22;56075;51.264;7.150;2023-05-07T10:06:23;23.70;98.70
20833;DHT22;56075;51.264;7.150;2023-05-07T10:08:55;23.80;98.40
20833;DHT22;56075;51.264;7.150;2023-05-07T10:11:29;23.90;98.10
20833;DHT22;56075;51.264;7.150;2023-05-07T10:14:01;23.80;98.10
20833;DHT22;56075;51.264;7.150;2023-05-07T10:16:36;23.80;97.60
20833;DHT22;56075;51.264;7.150;2023-05-07T10:19:10;23.90;97.40
20833;DHT22;56075;51.264;7.150;2023-05-07T10:21:54;23.90;97.20
20833;DHT22;56075;51.264;7.150;2023-05-07T10:24:32;24.10;96.50
20833;DHT22;56075;51.264;7.150;2023-05-07T10:27:09;24.20;96.70
20833;DHT22;56075;51.264;7.150;2023-05-07T10:30:13;24.10;96.40
20833;DHT22;56075;51.264;7.150;2023-05-07T10:32:51;24.20;95.30
20833;DHT22;56075;51.264;7.150;2023-05-07T10:35:37;24.40;95.80
20833;DHT22;56075;51.264;7.150;2023-05-07T10:38:09;24.30;95.70
20833;DHT22;56075;51.264;7.150;2023-05-07T10:40:44;24.40;95.60
20833;DHT22;56075;51.264;7.150;2023-05-07T10:43:15;24.40;95.20
20833;DHT22;56075;51.264;7.150;2023-05-07T10:46:11;24.60;94.90
20833;DHT22;56075;51.264;7.150;2023-05-07T10:51:40;24.90;93.50
20833;DHT22;56075;51.264;7.150;2023-05-07T10:54:20;24.80;93.70
20833;DHT22;56075;51.264;7.150;2023-05-07T11:05:38;25.40;92.20
20833;DHT22;56075;51.264;7.150;2023-05-07T11:08:55;25.40;92.20
20833;DHT22;56075;51.264;7.150;2023-05-07T11:11:48;25.40;91.50
20833;DHT22;56075;51.264;7.150;2023-05-07T11:17:17;23.40;91.30
20833;DHT22;56075;51.264;7.150;2023-05-07T11:19:55;25.10;91.80
20833;DHT22;56075;51.264;7.150;2023-05-07T11:22:45;25.10;91.90
20833;DHT22;56075;51.264;7.150;2023-05-07T11:25:40;25.00;92.20
20833;DHT22;56075;51.264;7.150;2023-05-07T11:28:21;24.80;92.40
20833;DHT22;56075;51.264;7.150;2023-05-07T11:31:03;24.50;92.50
20833;DHT22;56075;51.264;7.150;2023-05-07T11:33:35;24.40;92.70
20833;DHT22;56075;51.264;7.150;2023-05-07T11:36:09;24.20;93.00
20833;DHT22;56075;51.264;7.150;2023-05-07T11:38:47;24.00;93.30
20833;DHT22;56075;51.264;7.150;2023-05-07T11:41:18;23.80;93.50
20833;DHT22;56075;51.264;7.150;2023-05-07T11:43:57;23.90;93.80
20833;DHT22;56075;51.264;7.150;2023-05-07T11:46:30;23.70;94.00
20833;DHT22;56075;51.264;7.150;2023-05-07T11:49:01;23.50;94.30
20833;DHT22;56075;51.264;7.150;2023-05-07T11:51:33;23.30;94.40
20833;DHT22;56075;51.264;7.150;2023-05-07T11:54:04;23.10;94.60
20833;DHT22;56075;51.264;7.150;2023-05-07T11:56:39;22.90;94.80
20833;DHT22;56075;51.264;7.150;2023-05-07T11:59:10;22.90;95.30
20833;DHT22;56075;51.264;7.150;2023-05-07T12:01:45;22.90;95.10
20833;DHT22;56075;51.264;7.150;2023-05-07T12:04:19;22.90;95.20
20833;DHT22;56075;51.264;7.150;2023-05-07T12:06:54;22.70;95.30
20833;DHT22;56075;51.264;7.150;2023-05-07T12:09:26;22.90;95.50
20833;DHT22;56075;51.264;7.150;2023-05-07T12:12:03;23.80;95.80
20833;DHT22;56075;51.264;7.150;2023-05-07T12:14:39;22.90;95.70
20833;DHT22;56075;51.264;7.150;2023-05-07T12:17:12;22.90;95.70
20833;DHT22;56075;51.264;7.150;2023-05-07T12:19:44;22.60;95.80
20833;DHT22;56075;51.264;7.150;2023-05-07T12:22:16;22.60;95.90
20833;DHT22;56075;51.264;7.150;2023-05-07T12:24:56;22.60;95.90
20833;DHT22;56075;51.264;7.150;2023-05-07T12:27:28;22.70;95.80
20833;DHT22;56075;51.264;7.150;2023-05-07T12:29:59;22.60;95.90
20833;DHT22;56075;51.264;7.150;2023-05-07T12:32:30;23.60;96.30
20833;DHT22;56075;51.264;7.150;2023-05-07T12:35:01;22.80;96.20
20833;DHT22;56075;51.264;7.150;2023-05-07T12:37:33;22.50;96.20
20833;DHT22;56075;51.264;7.150;2023-05-07T12:40:08;22.50;96.40
20833;DHT22;56075;51.264;7.150;2023-05-07T12:42:40;22.50;96.50
20833;DHT22;56075;51.264;7.150;2023-05-07T12:45:15;22.30;96.70
20833;DHT22;56075;51.264;7.150;2023-05-07T12:47:47;22.30;97.00
20833;DHT22;56075;51.264;7.150;2023-05-07T12:50:18;22.80;97.50
20833;DHT22;56075;51.264;7.150;2023-05-07T12:52:49;22.40;97.50
20833;DHT22;56075;51.264;7.150;2023-05-07T12:55:20;22.50;97.70
20833;DHT22;56075;51.264;7.150;2023-05-07T12:57:52;22.40;97.80
20833;DHT22;56075;51.264;7.150;2023-05-07T13:00:37;22.50;98.00
20833;DHT22;56075;51.264;7.150;2023-05-07T13:03:10;22.70;98.00
20833;DHT22;56075;51.264;7.150;2023-05-07T13:05:41;22.40;98.20
20833;DHT22;56075;51.264;7.150;2023-05-07T13:08:23;22.60;98.00
20833;DHT22;56075;51.264;7.150;2023-05-07T13:11:00;22.70;98.10
20833;DHT22;56075;51.264;7.150;2023-05-07T13:13:35;22.90;97.80
20833;DHT22;56075;51.264;7.150;2023-05-07T13:16:09;23.00;98.00
20833;DHT22;56075;51.264;7.150;2023-05-07T13:18:40;23.10;97.90
20833;DHT22;56075;51.264;7.150;2023-05-07T13:21:14;23.00;97.80
20833;DHT22;56075;51.264;7.150;2023-05-07T13:23:45;22.90;97.70
20833;DHT22;56075;51.264;7.150;2023-05-07T13:26:16;22.90;97.40
20833;DHT22;56075;51.264;7.150;2023-05-07T13:28:47;22.90;97.20
20833;DHT22;56075;51.264;7.150;2023-05-07T13:31:19;22.60;97.00
20833;DHT22;56075;51.264;7.150;2023-05-07T13:33:51;22.50;96.80
20833;DHT22;56075;51.264;7.150;2023-05-07T13:36:23;22.50;96.70
20833;DHT22;56075;51.264;7.150;2023-05-07T13:38:54;23.20;96.80
20833;DHT22;56075;51.264;7.150;2023-05-07T13:41:25;22.40;96.50
20833;DHT22;56075;51.264;7.150;2023-05-07T13:43:56;22.30;96.50
20833;DHT22;56075;51.264;7.150;2023-05-07T13:46:27;22.10;96.40
20833;DHT22;56075;51.264;7.150;2023-05-07T13:49:00;22.20;96.50
20833;DHT22;56075;51.264;7.150;2023-05-07T13:51:32;22.10;96.30
20833;DHT22;56075;51.264;7.150;2023-05-07T13:54:03;21.90;96.40
20833;DHT22;56075;51.264;7.150;2023-05-07T13:56:35;21.80;96.40
20833;DHT22;56075;51.264;7.150;2023-05-07T13:59:06;21.80;96.40
20833;DHT22;56075;51.264;7.150;2023-05-07T14:01:39;21.80;96.50
20833;DHT22;56075;51.264;7.150;2023-05-07T14:04:10;21.50;96.50
20833;DHT22;56075;51.264;7.150;2023-05-07T14:06:41;21.40;96.90
20833;DHT22;56075;51.264;7.150;2023-05-07T14:09:13;22.20;97.40
20833;DHT22;56075;51.264;7.150;2023-05-07T14:11:44;21.20;97.40
20833;DHT22;56075;51.264;7.150;2023-05-07T14:14:18;21.20;97.70
20833;DHT22;56075;51.264;7.150;2023-05-07T14:16:50;21.60;98.10
20833;DHT22;56075;51.264;7.150;2023-05-07T14:19:21;21.10;98.20
20833;DHT22;56075;51.264;7.150;2023-05-07T14:21:54;21.10;98.60
20833;DHT22;56075;51.264;7.150;2023-05-07T14:24:26;20.90;98.80
20833;DHT22;56075;51.264;7.150;2023-05-07T14:26:57;21.00;99.10
20833;DHT22;56075;51.264;7.150;2023-05-07T14:29:28;20.60;99.30
20833;DHT22;56075;51.264;7.150;2023-05-07T14:31:59;20.70;99.70
20833;DHT22;56075;51.264;7.150;2023-05-07T14:34:31;20.50;99.90
20833;DHT22;56075;51.264;7.150;2023-05-07T14:37:03;20.50;99.90
20833;DHT22;56075;51.264;7.150;2023-05-07T14:39:34;20.90;99.90
20833;DHT22;56075;51.264;7.150;2023-05-07T14:42:05;20.50;99.90
20833;DHT22;56075;51.264;7.150;2023-05-07T14:44:38;20.40;99.90
20833;DHT22;56075;51.264;7.150;2023-05-07T14:47:12;20.20;99.90
20833;DHT22;56075;51.264;7.150;2023-05-07T14:49:43;20.10;99.90
20833;DHT22;56075;51.264;7.150;2023-05-07T14:52:15;20.10;99.90
20833;DHT22;56075;51.264;7.150;2023-05-07T14:54:46;20.00;99.90
20833;DHT22;56075;51.264;7.150;2023-05-07T14:57:17;20.10;99.90
20833;DHT22;56075;51.264;7.150;2023-05-07T14:59:49;20.90;99.90
20833;DHT22;56075;51.264;7.150;2023-05-07T15:02:20;19.90;99.90
20833;DHT22;56075;51.264;7.150;2023-05-07T15:04:51;20.00;99.90
20833;DHT22;56075;51.264;7.150;2023-05-07T15:07:22;19.60;99.90
20833;DHT22;56075;51.264;7.150;2023-05-07T15:09:54;19.60;99.90
20833;DHT22;56075;51.264;7.150;2023-05-07T15:12:25;19.50;99.90
20833;DHT22;56075;51.264;7.150;2023-05-07T15:14:56;19.30;99.90
20833;DHT22;56075;51.264;7.150;2023-05-07T15:17:27;19.30;99.90
20833;DHT22;56075;51.264;7.150;2023-05-07T15:19:58;19.20;99.90
20833;DHT22;56075;51.264;7.150;2023-05-07T15:22:30;19.30;99.90
20833;DHT22;56075;51.264;7.150;2023-05-07T15:25:01;19.20;99.90
20833;DHT22;56075;51.264;7.150;2023-05-07T15:27:32;18.90;99.90
20833;DHT22;56075;51.264;7.150;2023-05-07T15:30:04;19.90;99.90
20833;DHT22;56075;51.264;7.150;2023-05-07T15:32:37;18.80;99.90
20833;DHT22;56075;51.264;7.150;2023-05-07T15:35:09;18.90;99.90
20833;DHT22;56075;51.264;7.150;2023-05-07T15:37:40;18.90;99.90
20833;DHT22;56075;51.264;7.150;2023-05-07T15:40:12;19.70;99.90
20833;DHT22;56075;51.264;7.150;2023-05-07T15:42:45;18.60;99.90
20833;DHT22;56075;51.264;7.150;2023-05-07T15:45:16;18.80;99.90
20833;DHT22;56075;51.264;7.150;2023-05-07T15:47:47;18.50;99.90
20833;DHT22;56075;51.264;7.150;2023-05-07T15:50:19;18.60;99.90
20833;DHT22;56075;51.264;7.150;2023-05-07T15:52:51;19.00;99.90
20833;DHT22;56075;51.264;7.150;2023-05-07T15:55:22;19.50;99.90
20833;DHT22;56075;51.264;7.150;2023-05-07T15:57:53;18.60;99.90
20833;DHT22;56075;51.264;7.150;2023-05-07T16:00:26;19.30;99.90
20833;DHT22;56075;51.264;7.150;2023-05-07T16:03:00;18.50;99.90
20833;DHT22;56075;51.264;7.150;2023-05-07T16:05:31;19.30;99.90
20833;DHT22;56075;51.264;7.150;2023-05-07T16:08:03;18.70;99.90
20833;DHT22;56075;51.264;7.150;2023-05-07T16:10:36;18.60;99.90
20833;DHT22;56075;51.264;7.150;2023-05-07T16:13:07;18.70;99.90
20833;DHT22;56075;51.264;7.150;2023-05-07T16:15:38;18.80;99.90
20833;DHT22;56075;51.264;7.150;2023-05-07T16:18:10;18.90;99.90
20833;DHT22;56075;51.264;7.150;2023-05-07T16:20:42;19.00;99.90